createdAt,value
2022-07-30T00:01:45.004Z,34.92
2022-07-30T00:04:13.093Z,35.26
2022-07-30T00:06:40.902Z,35.25
2022-07-30T00:11:36.719Z,35.46
2022-07-30T00:14:04.637Z,35.85
2022-07-30T00:16:32.757Z,36.21
2022-07-30T00:21:36.302Z,36.19
2022-07-30T00:24:07.675Z,36.38
2022-07-30T00:26:35.400Z,36.86
2022-07-30T00:29:03.410Z,37.31
2022-07-30T00:31:33.179Z,37.02
2022-07-30T00:34:06.728Z,37.45
2022-07-30T00:36:38.005Z,36.70
2022-07-30T00:39:09.154Z,36.37
2022-07-30T00:41:56.638Z,36.41
2022-07-30T00:44:27.403Z,36.75
2022-07-30T00:46:56.192Z,36.29
2022-07-30T00:49:26.247Z,36.74
2022-07-30T00:54:25.977Z,36.39
2022-07-30T00:59:23.599Z,36.41
2022-07-30T01:01:52.331Z,36.62
2022-07-30T01:04:20.768Z,36.36
2022-07-30T01:06:48.479Z,35.61
2022-07-30T01:11:48.889Z,34.11
2022-07-30T01:14:17.378Z,34.76
2022-07-30T01:16:49.234Z,34.65
2022-07-30T01:19:42.124Z,34.31
2022-07-30T01:22:16.790Z,33.95
2022-07-30T01:24:57.620Z,34.26
2022-07-30T01:27:30.596Z,34.31
2022-07-30T01:30:00.147Z,34.56
2022-07-30T01:32:31.677Z,34.00
2022-07-30T01:35:01.598Z,34.18
2022-07-30T01:37:34.564Z,33.67
2022-07-30T01:40:05.012Z,33.90
2022-07-30T01:42:36.808Z,33.78
2022-07-30T01:45:07.307Z,34.35
2022-07-30T01:47:37.426Z,33.64
2022-07-30T01:50:11.010Z,34.12
2022-07-30T01:52:41.988Z,34.43
2022-07-30T01:55:17.024Z,33.83
2022-07-30T01:57:53.685Z,33.70
2022-07-30T02:00:23.915Z,33.59
2022-07-30T02:02:57.365Z,33.76
2022-07-30T02:05:28.627Z,32.75
2022-07-30T02:08:01.649Z,33.17
2022-07-30T02:10:35.592Z,33.44
2022-07-30T02:13:09.134Z,33.72
2022-07-30T02:15:42.004Z,33.27
2022-07-30T02:18:15.934Z,34.21
2022-07-30T02:21:02.635Z,34.41
2022-07-30T02:23:42.333Z,34.79
2022-07-30T02:26:16.544Z,34.41
2022-07-30T02:28:49.203Z,34.84
2022-07-30T02:31:20.052Z,34.73
2022-07-30T02:33:50.969Z,34.75
2022-07-30T02:36:20.858Z,34.90
2022-07-30T02:38:52.886Z,34.41
2022-07-30T02:41:23.848Z,34.45
2022-07-30T02:46:27.750Z,34.56
2022-07-30T02:48:58.598Z,34.69
2022-07-30T02:51:28.141Z,34.54
2022-07-30T02:53:59.404Z,34.69
2022-07-30T02:56:28.622Z,35.04
2022-07-30T02:59:06.211Z,34.77
2022-07-30T03:04:06.802Z,34.83
2022-07-30T03:06:37.222Z,35.64
2022-07-30T03:09:07.842Z,35.55
2022-07-30T03:11:37.483Z,35.84
2022-07-30T03:14:08.496Z,35.53
2022-07-30T03:16:38.882Z,33.79
2022-07-30T03:19:13.134Z,34.79
2022-07-30T03:21:41.931Z,35.30
2022-07-30T03:24:12.663Z,35.24
2022-07-30T03:26:42.449Z,35.00
2022-07-30T03:31:45.084Z,35.21
2022-07-30T03:34:13.603Z,35.75
2022-07-30T03:36:42.391Z,35.86
2022-07-30T03:39:13.818Z,36.11
2022-07-30T03:41:42.347Z,36.23
2022-07-30T03:44:12.615Z,36.14
2022-07-30T03:46:42.020Z,36.12
2022-07-30T03:49:11.785Z,36.18
2022-07-30T03:51:40.299Z,36.31
2022-07-30T03:54:13.780Z,36.56
2022-07-30T03:56:42.124Z,36.34
2022-07-30T03:59:14.604Z,36.34
2022-07-30T04:01:46.382Z,36.00
2022-07-30T04:04:15.333Z,35.97
2022-07-30T04:06:43.342Z,33.35
2022-07-30T04:09:13.390Z,35.05
2022-07-30T04:11:42.337Z,35.20
2022-07-30T04:14:12.282Z,35.13
2022-07-30T04:16:47.252Z,34.83
2022-07-30T04:19:18.179Z,35.29
2022-07-30T04:21:50.078Z,35.26
2022-07-30T04:24:19.504Z,34.06
2022-07-30T04:26:51.022Z,35.61
2022-07-30T04:29:24.446Z,35.67
2022-07-30T04:31:54.100Z,34.95
2022-07-30T04:34:22.896Z,35.78
2022-07-30T04:36:50.834Z,35.99
2022-07-30T04:39:18.601Z,36.09
2022-07-30T04:41:49.761Z,35.96
2022-07-30T04:44:20.843Z,36.57
2022-07-30T04:46:49.259Z,36.47
2022-07-30T04:49:19.206Z,36.24
2022-07-30T04:51:47.938Z,35.87
2022-07-30T04:54:18.712Z,35.35
2022-07-30T04:56:52.586Z,35.86
2022-07-30T04:59:30.879Z,35.93
2022-07-30T05:02:00.454Z,36.12
2022-07-30T05:04:29.738Z,36.05
2022-07-30T05:06:59.102Z,34.50
2022-07-30T05:09:27.643Z,35.68
2022-07-30T05:11:57.529Z,36.55
2022-07-30T05:14:29.095Z,35.93
2022-07-30T05:17:00.261Z,35.84
2022-07-30T05:19:28.403Z,36.20
2022-07-30T05:22:02.361Z,35.79
2022-07-30T05:24:32.772Z,36.42
2022-07-30T05:27:06.271Z,36.22
2022-07-30T05:29:34.077Z,37.03
2022-07-30T05:32:06.391Z,36.51
2022-07-30T05:34:35.558Z,35.98
2022-07-30T05:37:07.176Z,36.62
2022-07-30T05:39:57.413Z,36.68
2022-07-30T05:42:32.625Z,36.69
2022-07-30T05:45:03.395Z,36.58
2022-07-30T05:47:34.293Z,36.50
2022-07-30T05:50:05.575Z,36.41
2022-07-30T05:52:36.137Z,35.63
2022-07-30T05:55:04.214Z,36.51
2022-07-30T05:57:37.482Z,36.69
2022-07-30T06:00:06.724Z,36.54
2022-07-30T06:02:37.402Z,36.55
2022-07-30T06:05:11.540Z,35.85
2022-07-30T06:10:12.170Z,36.38
2022-07-30T06:12:40.202Z,36.02
2022-07-30T06:15:10.045Z,35.59
2022-07-30T06:17:42.955Z,35.41
2022-07-30T06:25:12.558Z,36.56
2022-07-30T06:27:51.006Z,36.18
2022-07-30T06:30:19.126Z,36.48
2022-07-30T06:32:48.778Z,35.51
2022-07-30T06:35:18.369Z,35.82
2022-07-30T06:40:19.139Z,35.44
2022-07-30T06:42:47.289Z,37.11
2022-07-30T06:45:15.269Z,36.65
2022-07-30T06:47:44.539Z,36.32
2022-07-30T06:50:12.635Z,37.25
2022-07-30T06:52:41.119Z,37.32
2022-07-30T06:55:12.563Z,37.27
2022-07-30T06:57:47.346Z,36.67
2022-07-30T07:00:16.029Z,36.93
2022-07-30T07:02:44.258Z,36.90
2022-07-30T07:05:12.393Z,36.13
2022-07-30T07:07:43.188Z,36.79
2022-07-30T07:10:15.452Z,35.35
2022-07-30T07:12:49.360Z,37.53
2022-07-30T07:15:18.089Z,37.66
2022-07-30T07:17:49.396Z,37.19
2022-07-30T07:20:18.569Z,36.88
2022-07-30T07:25:19.402Z,38.21
2022-07-30T07:28:12.195Z,37.66
2022-07-30T07:30:37.540Z,37.62
2022-07-30T07:33:05.898Z,37.86
2022-07-30T07:35:40.527Z,37.87
2022-07-30T07:38:18.947Z,37.09
2022-07-30T07:40:51.752Z,36.88
2022-07-30T07:43:25.514Z,36.68
2022-07-30T07:45:54.429Z,36.75
2022-07-30T07:48:22.525Z,36.37
2022-07-30T07:50:51.008Z,36.12
2022-07-30T07:53:18.848Z,36.28
2022-07-30T07:55:47.812Z,36.56
2022-07-30T07:58:26.087Z,36.01
2022-07-30T08:00:59.832Z,36.34
2022-07-30T08:03:29.550Z,34.94
2022-07-30T08:06:04.767Z,35.62
2022-07-30T08:08:38.155Z,36.37
2022-07-30T08:11:10.624Z,35.92
2022-07-30T08:13:48.771Z,36.27
2022-07-30T08:16:25.469Z,36.68
2022-07-30T08:19:01.265Z,35.99
2022-07-30T08:21:32.812Z,36.45
2022-07-30T08:24:01.628Z,36.52
2022-07-30T08:26:33.050Z,34.63
2022-07-30T08:29:00.888Z,35.04
2022-07-30T08:31:37.250Z,36.00
2022-07-30T08:34:06.252Z,37.00
2022-07-30T08:36:35.015Z,36.47
2022-07-30T08:39:05.666Z,37.53
2022-07-30T08:41:36.168Z,36.60
2022-07-30T08:44:12.586Z,36.35
2022-07-30T08:46:47.742Z,36.77
2022-07-30T08:49:22.680Z,37.06
2022-07-30T08:51:54.631Z,36.18
2022-07-30T08:54:23.624Z,35.05
2022-07-30T08:56:53.782Z,33.80
2022-07-30T08:59:24.397Z,35.04
2022-07-30T09:02:14.207Z,35.42
2022-07-30T09:04:42.074Z,35.72
2022-07-30T09:07:10.103Z,35.52
2022-07-30T09:09:38.753Z,35.70
2022-07-30T09:12:34.360Z,35.59
2022-07-30T09:15:08.872Z,35.24
2022-07-30T09:17:54.851Z,34.98
2022-07-30T09:20:28.233Z,34.58
2022-07-30T09:23:01.799Z,33.70
2022-07-30T09:25:38.088Z,35.22
2022-07-30T09:28:16.261Z,35.02
2022-07-30T09:30:47.675Z,34.73
2022-07-30T09:33:32.289Z,34.01
2022-07-30T09:38:43.954Z,33.73
2022-07-30T09:41:36.171Z,33.57
2022-07-30T09:44:07.522Z,32.46
2022-07-30T09:46:53.717Z,31.27
2022-07-30T09:49:29.353Z,30.92
2022-07-30T09:52:30.458Z,32.65
2022-07-30T09:54:58.730Z,33.39
2022-07-30T09:57:28.535Z,33.54
2022-07-30T09:59:58.121Z,33.45
2022-07-30T10:02:40.578Z,33.57
2022-07-30T10:05:16.604Z,33.54
2022-07-30T10:07:57.479Z,33.88
2022-07-30T10:10:32.859Z,33.69
2022-07-30T10:13:04.865Z,34.40
2022-07-30T10:15:36.625Z,36.20
2022-07-30T10:18:08.689Z,37.15
2022-07-30T10:20:43.356Z,37.10
2022-07-30T10:23:24.031Z,37.58
2022-07-30T10:26:04.030Z,37.69
2022-07-30T10:28:38.434Z,38.81
2022-07-30T10:38:52.588Z,38.82
2022-07-30T10:41:47.415Z,40.24
2022-07-30T10:44:37.119Z,40.37
2022-07-30T10:47:16.889Z,40.59
2022-07-30T10:49:59.955Z,40.50
2022-07-30T10:53:01.382Z,38.62
2022-07-30T10:55:38.595Z,41.11
2022-07-30T10:58:17.865Z,40.23
2022-07-30T11:03:41.444Z,42.73
2022-07-30T11:06:27.709Z,42.23
2022-07-30T11:12:01.746Z,43.53
2022-07-30T11:15:07.171Z,43.63
2022-07-30T11:18:02.342Z,42.97
2022-07-30T11:20:36.561Z,43.66
2022-07-30T11:23:13.972Z,42.97
2022-07-30T11:25:51.804Z,41.92
2022-07-30T11:28:49.820Z,43.99
2022-07-30T11:31:56.536Z,42.08
2022-07-30T11:34:31.226Z,43.43
2022-07-30T11:37:31.835Z,44.75
2022-07-30T11:43:20.528Z,43.25
2022-07-30T11:46:29.229Z,44.68
2022-07-30T11:49:03.483Z,45.14
2022-07-30T11:51:46.637Z,43.84
2022-07-30T11:54:21.603Z,44.78
2022-07-30T12:00:02.132Z,44.16
2022-07-30T12:05:21.038Z,43.85
2022-07-30T12:07:53.835Z,44.74
2022-07-30T12:10:27.147Z,44.28
2022-07-30T12:13:19.448Z,44.56
2022-07-30T12:16:04.135Z,44.09
2022-07-30T12:18:40.464Z,41.79
2022-07-30T12:23:49.062Z,42.34
2022-07-30T12:26:29.715Z,43.29
2022-07-30T12:29:01.654Z,42.72
2022-07-30T12:31:41.781Z,43.69
2022-07-30T12:34:24.578Z,42.84
2022-07-30T12:40:16.561Z,41.57
2022-07-30T12:43:18.772Z,42.96
2022-07-30T12:46:06.360Z,43.05
2022-07-30T12:48:44.599Z,42.59
2022-07-30T12:51:13.580Z,43.89
2022-07-30T12:56:41.850Z,41.46
2022-07-30T12:59:25.906Z,42.14
2022-07-30T13:02:01.008Z,42.34
2022-07-30T13:04:36.081Z,42.84
2022-07-30T13:07:11.208Z,42.23
2022-07-30T13:09:43.526Z,41.82
2022-07-30T13:12:20.020Z,43.76
2022-07-30T13:17:52.838Z,44.00
2022-07-30T13:20:30.838Z,43.85
2022-07-30T13:23:07.603Z,44.79
2022-07-30T13:25:46.217Z,44.00
2022-07-30T13:28:19.914Z,43.51
2022-07-30T13:33:48.558Z,44.79
2022-07-30T13:36:21.250Z,43.82
2022-07-30T13:38:55.338Z,44.70
2022-07-30T13:41:34.368Z,43.38
2022-07-30T13:46:44.193Z,44.77
2022-07-30T13:49:34.129Z,44.63
2022-07-30T13:52:08.833Z,45.62
2022-07-30T13:54:46.499Z,45.35
2022-07-30T14:00:17.950Z,44.79
2022-07-30T14:02:53.402Z,44.53
2022-07-30T14:05:50.526Z,45.14
2022-07-30T14:08:29.192Z,45.18
2022-07-30T14:11:02.814Z,44.29
2022-07-30T14:13:41.295Z,44.98
2022-07-30T14:16:35.332Z,45.19
2022-07-30T14:19:07.843Z,43.53
2022-07-30T14:22:09.335Z,43.70
2022-07-30T14:24:41.070Z,43.76
2022-07-30T14:27:10.903Z,42.61
2022-07-30T14:29:45.379Z,43.71
2022-07-30T14:32:31.024Z,44.40
2022-07-30T14:35:04.650Z,44.24
2022-07-30T14:37:36.842Z,45.20
2022-07-30T14:40:16.930Z,44.86
2022-07-30T14:42:44.721Z,44.75
2022-07-30T14:45:16.665Z,44.63
2022-07-30T14:52:53.889Z,40.82
2022-07-30T14:55:24.462Z,42.45
2022-07-30T14:57:52.334Z,44.41
2022-07-30T15:00:21.298Z,44.33
2022-07-30T15:02:52.567Z,44.57
2022-07-30T15:05:23.840Z,44.39
2022-07-30T15:07:52.166Z,41.70
2022-07-30T15:10:21.084Z,43.93
2022-07-30T15:15:19.338Z,44.29
2022-07-30T15:17:50.445Z,44.48
2022-07-30T15:20:19.642Z,43.92
2022-07-30T15:22:49.888Z,44.58
2022-07-30T15:25:20.428Z,44.98
2022-07-30T15:27:52.398Z,44.32
2022-07-30T15:32:52.768Z,43.73
2022-07-30T15:35:22.550Z,44.50
2022-07-30T15:37:54.525Z,44.40
2022-07-30T15:40:24.962Z,45.78
2022-07-30T15:47:57.809Z,45.44
2022-07-30T15:50:25.924Z,46.71
2022-07-30T15:53:03.819Z,46.33
2022-07-30T15:55:47.455Z,46.48
2022-07-30T15:58:15.828Z,45.71
2022-07-30T16:00:51.029Z,44.80
2022-07-30T16:03:19.217Z,46.84
2022-07-30T16:05:52.191Z,47.37
2022-07-30T16:08:21.666Z,45.94
2022-07-30T16:10:50.156Z,46.08
2022-07-30T16:13:18.712Z,46.62
2022-07-30T16:18:19.151Z,46.85
2022-07-30T16:20:47.046Z,47.62
2022-07-30T16:23:20.819Z,47.89
2022-07-30T16:25:53.054Z,47.52
2022-07-30T16:28:21.814Z,46.32
2022-07-30T16:30:51.766Z,46.70
2022-07-30T16:33:21.786Z,45.39
2022-07-30T16:35:53.223Z,44.12
2022-07-30T16:38:25.245Z,43.31
2022-07-30T16:40:53.444Z,43.78
2022-07-30T16:43:25.249Z,44.86
2022-07-30T16:45:54.078Z,45.00
2022-07-30T16:50:56.272Z,44.15
2022-07-30T16:53:24.468Z,44.07
2022-07-30T16:55:52.460Z,44.57
2022-07-30T16:58:21.417Z,45.42
2022-07-30T17:00:57.322Z,45.02
2022-07-30T17:05:54.134Z,44.99
2022-07-30T17:08:24.939Z,44.55
2022-07-30T17:10:53.574Z,44.00
2022-07-30T17:13:22.701Z,46.78
2022-07-30T17:15:53.698Z,46.10
2022-07-30T17:18:24.379Z,45.86
2022-07-30T17:20:58.623Z,47.12
2022-07-30T17:23:27.528Z,47.97
2022-07-30T17:25:59.803Z,47.47
2022-07-30T17:28:31.825Z,46.94
2022-07-30T17:31:07.258Z,46.20
2022-07-30T17:33:35.651Z,46.54
2022-07-30T17:36:05.525Z,45.08
2022-07-30T17:38:40.251Z,46.53
2022-07-30T17:41:13.600Z,47.40
2022-07-30T17:43:42.251Z,46.08
2022-07-30T17:46:15.782Z,46.24
2022-07-30T17:48:43.537Z,45.67
2022-07-30T17:51:12.505Z,46.86
2022-07-30T17:53:42.231Z,45.83
2022-07-30T17:56:26.847Z,47.61
2022-07-30T17:58:59.328Z,46.34
2022-07-30T18:01:27.502Z,46.14
2022-07-30T18:03:59.033Z,46.85
2022-07-30T18:06:27.519Z,46.17
2022-07-30T18:08:56.360Z,48.04
2022-07-30T18:13:58.183Z,46.76
2022-07-30T18:16:27.020Z,47.42
2022-07-30T18:18:55.830Z,46.38
2022-07-30T18:23:55.837Z,46.35
2022-07-30T18:28:58.643Z,46.37
2022-07-30T18:31:30.276Z,46.33
2022-07-30T18:34:01.630Z,46.21
2022-07-30T18:36:30.068Z,46.59
2022-07-30T18:38:58.105Z,47.21
2022-07-30T18:41:33.426Z,45.81
2022-07-30T18:44:01.903Z,46.46
2022-07-30T18:46:30.903Z,46.33
2022-07-30T18:49:20.937Z,46.96
2022-07-30T18:51:52.424Z,46.35
2022-07-30T18:59:18.405Z,46.83
2022-07-30T19:01:47.070Z,46.18
2022-07-30T19:06:46.210Z,45.04
2022-07-30T19:09:17.539Z,44.18
2022-07-30T19:11:49.593Z,43.96
2022-07-30T19:14:24.472Z,43.89
2022-07-30T19:16:53.061Z,45.79
2022-07-30T19:19:22.656Z,45.94
2022-07-30T19:21:51.134Z,46.24
2022-07-30T19:24:21.843Z,46.54
2022-07-30T19:26:54.156Z,46.43
2022-07-30T19:29:26.120Z,45.97
2022-07-30T19:31:58.701Z,45.27
2022-07-30T19:34:26.747Z,47.60
2022-07-30T19:36:58.567Z,48.67
2022-07-30T19:39:29.815Z,47.10
2022-07-30T19:42:03.452Z,47.83
2022-07-30T19:47:09.372Z,46.90
2022-07-30T19:49:41.550Z,48.47
2022-07-30T19:52:23.389Z,47.01
2022-07-30T19:55:04.839Z,47.22
2022-07-30T19:57:54.195Z,46.84
2022-07-30T20:00:35.708Z,47.25
2022-07-30T20:03:12.700Z,46.27
2022-07-30T20:05:54.962Z,47.43
2022-07-30T20:11:04.729Z,44.90
2022-07-30T20:13:46.255Z,44.76
2022-07-30T20:18:49.727Z,46.26
2022-07-30T20:21:57.756Z,45.74
2022-07-30T20:24:18.097Z,46.51
2022-07-30T20:26:47.976Z,47.66
2022-07-30T20:29:23.002Z,46.96
2022-07-30T20:31:55.657Z,47.32
2022-07-30T20:36:59.262Z,47.09
2022-07-30T20:39:49.468Z,46.98
2022-07-30T20:45:06.621Z,46.25
2022-07-30T20:47:52.515Z,47.19
2022-07-30T20:50:31.454Z,46.75
2022-07-30T20:55:54.382Z,46.53
2022-07-30T20:58:30.148Z,45.51
2022-07-30T21:03:48.908Z,45.17
2022-07-30T21:06:24.388Z,43.67
2022-07-30T21:08:57.668Z,46.46
2022-07-30T21:14:08.705Z,47.13
2022-07-30T21:16:39.928Z,47.28
2022-07-30T21:19:10.410Z,48.16
2022-07-30T21:21:47.876Z,48.34
2022-07-30T21:24:22.426Z,47.89
2022-07-30T21:29:52.579Z,47.52
2022-07-30T21:32:29.027Z,48.88
2022-07-30T21:34:57.500Z,50.75
2022-07-30T21:37:36.695Z,50.23
2022-07-30T21:40:07.793Z,48.00
2022-07-30T21:42:48.501Z,48.08
2022-07-30T21:45:17.304Z,47.53
2022-07-30T21:47:47.549Z,48.68
2022-07-30T21:50:39.454Z,49.96
2022-07-30T21:56:06.816Z,47.96
2022-07-30T22:01:17.022Z,47.55
2022-07-30T22:04:04.806Z,48.35
2022-07-30T22:06:38.054Z,48.45
2022-07-30T22:09:19.291Z,47.82
2022-07-30T22:12:09.146Z,49.52
2022-07-30T22:14:49.442Z,49.10
2022-07-30T22:17:23.458Z,48.41
2022-07-30T22:20:02.214Z,48.98
2022-07-30T22:25:21.839Z,49.52
2022-07-30T22:27:55.779Z,48.95
2022-07-30T22:30:45.668Z,49.90
2022-07-30T22:33:16.715Z,49.93
2022-07-30T22:35:49.842Z,47.98
2022-07-30T22:38:25.281Z,48.88
2022-07-30T22:40:54.821Z,50.24
2022-07-30T22:43:41.000Z,47.28
2022-07-30T22:46:30.068Z,45.51
2022-07-30T22:49:25.075Z,45.49
2022-07-30T22:52:28.970Z,45.81
2022-07-30T22:55:09.342Z,48.49
2022-07-30T22:57:42.349Z,48.78
2022-07-30T23:00:28.174Z,49.73
2022-07-30T23:02:58.283Z,49.67
2022-07-30T23:05:31.840Z,47.25
2022-07-30T23:08:06.435Z,46.66
2022-07-30T23:12:28.646Z,46.73
2022-07-30T23:16:03.373Z,49.48
2022-07-30T23:18:36.037Z,49.28
2022-07-30T23:21:06.110Z,48.15
2022-07-30T23:23:38.158Z,47.86
2022-07-30T23:26:07.133Z,47.27
2022-07-30T23:28:37.233Z,48.42
2022-07-30T23:33:42.594Z,48.40
2022-07-30T23:38:39.582Z,48.63
2022-07-30T23:41:09.522Z,48.39
2022-07-30T23:43:38.033Z,48.04
2022-07-30T23:46:11.523Z,50.65
2022-07-30T23:48:45.564Z,49.66
2022-07-30T23:51:14.108Z,50.20
2022-07-30T23:53:46.192Z,51.78
2022-07-30T23:56:20.976Z,51.85
2022-07-30T23:58:53.770Z,50.14
